Time,TemperatureF,DewpointF,PressureIn,WindDirection,WindDirectionDegrees,WindSpeedMPH,WindSpeedGustMPH,Humidity,HourlyPrecipIn,Conditions,Clouds,dailyrainin,SoftwareType,DateUTC
2013-03-10 00:00:00,52.5,49.7,29.63,SW,225,0.9,1.8,90,0.00,,BKN110,0.00,VWS V14.01,2013-03-10 06:00:00,
2013-03-10 00:05:00,52.3,49.5,29.63,South,180,1.6,1.6,90,0.00,,BKN110,0.00,VWS V14.01,2013-03-10 06:05:00,
2013-03-10 00:10:00,52.0,49.2,29.64,SSW,202,1.1,1.8,90,0.00,,BKN110,0.00,VWS V14.01,2013-03-10 06:10:00,
2013-03-10 00:15:00,52.0,49.2,29.64,SSW,202,0.0,1.1,90,0.00,,CLR,0.00,VWS V14.01,2013-03-10 06:15:00,
2013-03-10 00:20:00,51.8,49.0,29.64,SSE,158,1.3,1.3,90,0.00,,CLR,0.00,VWS V14.01,2013-03-10 06:20:00,
2013-03-10 00:25:00,51.6,48.8,29.63,South,180,0.4,1.3,90,0.00,,CLR,0.00,VWS V14.01,2013-03-10 06:25:00,
2013-03-10 00:30:00,51.4,48.6,29.63,NNE,22,0.0,0.7,90,0.00,,CLR,0.00,VWS V14.01,2013-03-10 06:30:00,
2013-03-10 00:35:00,51.2,48.4,29.62,NNE,22,0.0,0.9,90,0.00,,CLR,0.00,VWS V14.01,2013-03-10 06:35:00,
2013-03-10 00:40:00,51.1,48.3,29.62,NNE,22,0.0,0.0,90,0.00,,CLR,0.00,VWS V14.01,2013-03-10 06:40:00,
2013-03-10 00:45:00,50.7,47.9,29.62,NNE,22,0.0,0.0,90,0.00,,CLR,0.00,VWS V14.01,2013-03-10 06:45:00,
2013-03-10 00:50:00,50.5,47.7,29.62,NNE,22,0.2,0.2,90,0.00,,CLR,0.00,VWS V14.01,2013-03-10 06:50:00,
2013-03-10 00:55:00,50.3,47.5,29.62,NNE,22,0.0,0.2,90,0.00,,CLR,0.00,VWS V14.01,2013-03-10 06:55:00,
2013-03-10 01:03:00,50.0,47.2,29.62,North,0,0.2,0.2,90,0.00,,CLR,0.00,VWS V14.01,2013-03-10 07:03:00,
2013-03-10 01:10:00,49.6,46.8,29.64,North,0,0.0,0.0,90,0.00,,CLR,0.00,VWS V14.01,2013-03-10 07:10:00,
2013-03-10 01:15:00,49.3,46.2,29.63,North,0,0.0,0.4,89,0.00,,,0.00,VWS V14.01,2013-03-10 07:15:00,
2013-03-10 01:20:00,49.3,46.2,29.63,North,0,0.0,0.2,89,0.00,,,0.00,VWS V14.01,2013-03-10 07:20:00,
2013-03-10 01:25:00,49.1,46.3,29.63,ENE,68,0.0,0.7,90,0.00,,,0.00,VWS V14.01,2013-03-10 07:25:00,
2013-03-10 01:30:00,49.1,46.3,29.62,ENE,68,0.4,0.7,90,0.00,,,0.00,VWS V14.01,2013-03-10 07:30:00,
2013-03-10 01:35:00,49.1,46.3,29.62,ENE,68,0.0,0.4,90,0.00,,,0.00,VWS V14.01,2013-03-10 07:35:00,
2013-03-10 01:40:00,49.1,46.3,29.63,ENE,68,0.0,0.0,90,0.00,,,0.00,VWS V14.01,2013-03-10 07:40:00,
2013-03-10 01:45:00,48.7,45.9,29.63,ENE,68,0.0,0.0,90,0.00,,,0.00,VWS V14.01,2013-03-10 07:45:00,
2013-03-10 01:50:00,48.4,45.3,29.63,ENE,68,0.0,0.0,89,0.00,,,0.00,VWS V14.01,2013-03-10 07:50:00,
2013-03-10 01:55:00,48.0,45.2,29.63,ENE,68,0.0,0.2,90,0.00,,,0.00,VWS V14.01,2013-03-10 07:55:00,
2013-03-10 03:03:00,47.6,44.8,29.64,SE,135,0.9,1.3,90,0.00,,,0.00,VWS V14.01,2013-03-10 08:03:00,
2013-03-10 03:10:00,47.8,45.0,29.63,SE,135,1.8,2.2,90,0.00,,,0.00,VWS V14.01,2013-03-10 08:10:00,
2013-03-10 03:15:00,48.4,45.6,29.62,ESE,112,0.0,1.8,90,0.00,,CLR,0.00,VWS V14.01,2013-03-10 08:15:00,
2013-03-10 03:20:00,48.9,46.4,29.62,ESE,112,1.1,1.8,91,0.00,,CLR,0.00,VWS V14.01,2013-03-10 08:20:00,
2013-03-10 03:25:00,49.4,46.9,29.62,SSE,158,1.6,2.2,91,0.00,,CLR,0.00,VWS V14.01,2013-03-10 08:25:00,
2013-03-10 03:30:00,49.8,47.6,29.62,SE,135,1.1,4.7,92,0.00,,CLR,0.00,VWS V14.01,2013-03-10 08:30:00,
2013-03-10 03:35:00,50.0,47.8,29.63,SSE,158,2.0,4.0,92,0.00,,CLR,0.00,VWS V14.01,2013-03-10 08:35:00,
2013-03-10 03:40:00,50.2,48.0,29.63,ESE,112,0.2,2.0,92,0.00,,CLR,0.00,VWS V14.01,2013-03-10 08:40:00,
2013-03-10 03:45:00,50.3,48.1,29.63,SSE,158,2.2,2.9,92,0.00,,CLR,0.00,VWS V14.01,2013-03-10 08:45:00,
2013-03-10 03:50:00,50.5,48.3,29.62,SE,135,2.5,4.3,92,0.00,,CLR,0.00,VWS V14.01,2013-03-10 08:50:00,
2013-03-10 03:55:00,50.5,48.3,29.62,ESE,112,2.5,4.5,92,0.00,,CLR,0.00,VWS V14.01,2013-03-10 08:55:00,
2013-03-10 04:03:00,50.5,48.3,29.61,SSW,202,2.5,2.7,92,0.00,,CLR,0.00,VWS V14.01,2013-03-10 09:03:00,
2013-03-10 04:10:00,50.5,48.3,29.62,SE,135,1.8,2.9,92,0.00,,CLR,0.00,VWS V14.01,2013-03-10 09:10:00,
2013-03-10 04:15:00,50.5,48.3,29.61,ESE,112,2.5,3.6,92,0.00,,BKN006,0.00,VWS V14.01,2013-03-10 09:15:00,
2013-03-10 04:20:00,50.5,48.3,29.61,NE,45,0.9,2.5,92,0.00,,BKN006,0.00,VWS V14.01,2013-03-10 09:20:00,
2013-03-10 04:25:00,50.3,48.1,29.60,SE,135,2.7,2.7,92,0.00,,BKN006,0.00,VWS V14.01,2013-03-10 09:25:00,
2013-03-10 04:30:00,50.3,48.1,29.58,SSE,158,1.8,2.9,92,0.00,,BKN006,0.00,VWS V14.01,2013-03-10 09:30:00,
2013-03-10 04:35:00,50.3,48.1,29.57,SE,135,0.4,1.8,92,0.00,,BKN006,0.00,VWS V14.01,2013-03-10 09:35:00,
2013-03-10 04:40:00,50.3,48.1,29.58,SSW,202,0.0,0.4,92,0.00,,BKN006,0.00,VWS V14.01,2013-03-10 09:40:00,
2013-03-10 04:45:00,50.2,48.0,29.58,SE,135,1.1,1.3,92,0.00,,BKN006,0.00,VWS V14.01,2013-03-10 09:45:00,
2013-03-10 04:50:00,50.2,48.0,29.58,ESE,112,1.1,1.1,92,0.00,,BKN006,0.00,VWS V14.01,2013-03-10 09:50:00,
2013-03-10 04:55:00,50.0,47.8,29.58,NE,45,0.0,1.6,92,0.00,,BKN006,0.00,VWS V14.01,2013-03-10 09:55:00,
2013-03-10 05:03:00,50.0,47.8,29.59,South,180,0.0,0.4,92,0.00,,BKN006,0.00,VWS V14.01,2013-03-10 10:03:00,
2013-03-10 05:10:00,49.8,47.6,29.61,South,180,1.3,1.6,92,0.00,,BKN006,0.00,VWS V14.01,2013-03-10 10:10:00,
2013-03-10 05:15:00,49.8,47.6,29.65,South,180,1.8,2.5,92,0.00,,CLR,0.00,VWS V14.01,2013-03-10 10:15:00,
2013-03-10 05:20:00,49.8,47.6,29.64,SE,135,0.4,2.5,92,0.00,,CLR,0.00,VWS V14.01,2013-03-10 10:20:00,
2013-03-10 05:25:00,49.8,47.6,29.64,WSW,248,2.5,2.5,92,0.00,,CLR,0.00,VWS V14.01,2013-03-10 10:25:00,
2013-03-10 05:30:00,49.8,47.6,29.64,SSW,202,3.4,4.0,92,0.00,,CLR,0.00,VWS V14.01,2013-03-10 10:30:00,
2013-03-10 05:35:00,49.8,47.6,29.64,WSW,248,2.0,3.4,92,0.00,,CLR,0.00,VWS V14.01,2013-03-10 10:35:00,
2013-03-10 05:40:00,49.8,47.6,29.64,SSE,158,4.9,4.9,92,0.00,,CLR,0.00,VWS V14.01,2013-03-10 10:40:00,
2013-03-10 05:45:00,49.8,47.6,29.64,SSW,202,1.1,4.9,92,0.00,,CLR,0.00,VWS V14.01,2013-03-10 10:45:00,
2013-03-10 05:50:00,49.8,47.6,29.64,SW,225,0.4,1.8,92,0.00,,CLR,0.00,VWS V14.01,2013-03-10 10:50:00,
2013-03-10 05:55:00,49.8,47.6,29.64,WSW,248,0.9,3.1,92,0.00,,CLR,0.00,VWS V14.01,2013-03-10 10:55:00,
2013-03-10 06:03:00,49.8,47.6,29.64,SSW,202,0.4,2.7,92,0.00,,CLR,0.00,VWS V14.01,2013-03-10 11:03:00,
2013-03-10 06:10:00,49.8,47.6,29.65,SSW,202,2.5,2.5,92,0.00,,CLR,0.00,VWS V14.01,2013-03-10 11:10:00,
2013-03-10 06:20:00,49.6,47.4,29.64,South,180,0.0,2.9,92,0.00,,FEW120,0.00,VWS V14.01,2013-03-10 11:20:00,
2013-03-10 06:25:00,49.6,47.4,29.63,ESE,112,0.4,2.2,92,0.00,,FEW120,0.00,VWS V14.01,2013-03-10 11:25:00,
2013-03-10 06:30:00,49.6,47.4,29.64,SE,135,2.2,2.2,92,0.00,,FEW120,0.00,VWS V14.01,2013-03-10 11:30:00,
2013-03-10 06:35:00,49.6,47.4,29.63,SSW,202,0.4,3.4,92,0.00,,FEW120,0.00,VWS V14.01,2013-03-10 11:35:00,
2013-03-10 06:40:00,49.6,47.4,29.63,SE,135,1.1,2.5,92,0.00,,FEW120,0.00,VWS V14.01,2013-03-10 11:40:00,
2013-03-10 06:45:00,49.6,47.4,29.62,South,180,2.0,2.0,92,0.00,,FEW120,0.00,VWS V14.01,2013-03-10 11:45:00,
2013-03-10 06:50:00,49.6,47.4,29.63,SSW,202,0.2,2.0,92,0.00,,FEW120,0.00,VWS V14.01,2013-03-10 11:50:00,
2013-03-10 06:55:00,49.6,47.4,29.64,SE,135,1.6,2.2,92,0.00,,FEW120,0.00,VWS V14.01,2013-03-10 11:55:00,
2013-03-10 07:03:00,49.6,47.4,29.65,SSW,202,0.4,1.8,92,0.00,,FEW120,0.00,VWS V14.01,2013-03-10 12:03:00,
2013-03-10 07:10:00,49.6,47.1,29.67,SW,225,1.6,1.6,91,0.00,,FEW120,0.00,VWS V14.01,2013-03-10 12:10:00,
2013-03-10 07:15:00,49.6,47.4,29.67,WNW,292,0.4,2.5,92,0.00,,OVC034,0.00,VWS V14.01,2013-03-10 12:15:00,
2013-03-10 07:20:00,49.6,47.4,29.67,SSW,202,2.5,2.5,92,0.00,,OVC034,0.00,VWS V14.01,2013-03-10 12:20:00,
2013-03-10 07:25:00,49.6,47.4,29.67,SE,135,2.2,2.5,92,0.00,,OVC034,0.00,VWS V14.01,2013-03-10 12:25:00,
2013-03-10 07:30:00,49.8,47.6,29.66,SSW,202,1.3,2.2,92,0.00,,OVC034,0.00,VWS V14.01,2013-03-10 12:30:00,
2013-03-10 07:35:00,49.6,47.1,29.66,SSW,202,1.1,2.5,91,0.00,,OVC034,0.00,VWS V14.01,2013-03-10 12:35:00,
2013-03-10 07:40:00,49.6,47.1,29.66,SSE,158,0.9,2.0,91,0.00,,OVC034,0.00,VWS V14.01,2013-03-10 12:40:00,
2013-03-10 07:45:00,49.6,47.1,29.65,South,180,0.4,1.8,91,0.00,,OVC034,0.00,VWS V14.01,2013-03-10 12:45:00,
2013-03-10 07:50:00,49.4,46.9,29.65,SE,135,1.8,1.8,91,0.00,,OVC034,0.00,VWS V14.01,2013-03-10 12:50:00,
2013-03-10 07:55:00,49.4,46.6,29.65,SE,135,1.8,2.2,90,0.00,,OVC034,0.00,VWS V14.01,2013-03-10 12:55:00,
2013-03-10 08:03:00,49.3,46.5,29.66,SSW,202,1.1,1.1,90,0.00,,OVC034,0.00,VWS V14.01,2013-03-10 13:03:00,
2013-03-10 08:10:00,49.3,46.5,29.64,North,0,0.0,0.4,90,0.00,,OVC034,0.00,VWS V14.01,2013-03-10 13:10:00,
2013-03-10 08:15:00,49.3,46.5,29.65,WNW,292,0.4,1.1,90,0.00,,SCT120,0.00,VWS V14.01,2013-03-10 13:15:00,
2013-03-10 08:20:00,49.3,46.5,29.65,West,270,0.0,1.1,90,0.00,,SCT120,0.00,VWS V14.01,2013-03-10 13:20:00,
2013-03-10 08:25:00,49.3,46.5,29.66,West,270,0.4,1.1,90,0.00,,SCT120,0.00,VWS V14.01,2013-03-10 13:25:00,
2013-03-10 08:30:00,49.1,46.3,29.66,SSW,202,0.9,1.8,90,0.00,,SCT120,0.00,VWS V14.01,2013-03-10 13:30:00,
2013-03-10 08:35:00,49.3,46.5,29.66,SSE,158,0.0,1.1,90,0.00,,SCT120,0.00,VWS V14.01,2013-03-10 13:35:00,
2013-03-10 08:40:00,49.3,46.5,29.64,ESE,112,0.0,1.8,90,0.00,,SCT120,0.00,VWS V14.01,2013-03-10 13:40:00,
2013-03-10 08:45:00,49.3,46.5,29.64,NNE,22,0.0,0.7,90,0.00,,SCT120,0.00,VWS V14.01,2013-03-10 13:45:00,
2013-03-10 08:50:00,49.1,46.3,29.64,NNW,338,0.4,4.3,90,0.00,,SCT120,0.00,VWS V14.01,2013-03-10 13:50:00,
2013-03-10 08:55:00,48.5,45.7,29.65,NW,315,2.5,3.4,90,0.00,,SCT120,0.00,VWS V14.01,2013-03-10 13:55:00,
2013-03-10 09:03:00,47.3,44.2,29.66,NNW,338,0.2,2.0,89,0.00,,SCT120,0.00,VWS V14.01,2013-03-10 14:03:00,
2013-03-10 09:10:00,46.2,42.8,29.67,NW,315,1.6,1.6,88,0.00,,SCT120,0.00,VWS V14.01,2013-03-10 14:10:00,
2013-03-10 09:15:00,45.3,42.0,29.66,NNE,22,0.9,1.8,88,0.00,,OVC033,0.00,VWS V14.01,2013-03-10 14:15:00,
2013-03-10 09:20:00,44.6,41.3,29.67,WNW,292,1.1,2.2,88,0.00,,OVC033,0.00,VWS V14.01,2013-03-10 14:20:00,
2013-03-10 09:25:00,44.0,40.7,29.67,NNE,22,0.9,1.8,88,0.00,,OVC033,0.00,VWS V14.01,2013-03-10 14:25:00,
2013-03-10 09:30:00,43.5,40.2,29.69,WNW,292,2.5,3.8,88,0.00,,-RA,0.00,VWS V14.01,2013-03-10 14:30:00,
2013-03-10 09:35:00,43.0,39.7,29.69,NW,315,2.0,2.5,88,0.03,,-RA,0.03,VWS V14.01,2013-03-10 14:35:00,
2013-03-10 09:40:00,42.6,39.3,29.69,East,90,0.0,2.9,88,0.04,,-RA,0.04,VWS V14.01,2013-03-10 14:40:00,
2013-03-10 09:45:00,42.1,39.1,29.69,North,0,0.2,2.2,89,0.04,,-RA,0.04,VWS V14.01,2013-03-10 14:45:00,
2013-03-10 09:50:00,41.9,38.9,29.68,NNE,22,0.2,0.4,89,0.04,,-RA,0.04,VWS V14.01,2013-03-10 14:50:00,
2013-03-10 09:55:00,41.7,38.4,29.67,North,0,0.2,0.7,88,0.04,,-RA,0.04,VWS V14.01,2013-03-10 14:55:00,
2013-03-10 10:04:00,41.3,38.0,29.67,NNW,338,2.7,2.7,88,0.04,,-RA,0.04,VWS V14.01,2013-03-10 15:04:00,
2013-03-10 10:10:00,41.2,38.2,29.66,North,0,0.4,2.5,89,0.04,,-RA,0.04,VWS V14.01,2013-03-10 15:10:00,
2013-03-10 10:15:00,41.0,38.0,29.67,NNW,338,0.0,1.3,89,0.04,,,0.04,VWS V14.01,2013-03-10 15:15:00,
2013-03-10 10:20:00,40.8,37.8,29.67,North,0,0.0,0.9,89,0.04,,,0.04,VWS V14.01,2013-03-10 15:20:00,
2013-03-10 10:25:00,40.6,37.6,29.68,North,0,1.6,1.6,89,0.04,,,0.04,VWS V14.01,2013-03-10 15:25:00,
2013-03-10 10:30:00,40.6,37.6,29.68,ENE,68,0.0,1.6,89,0.04,,,0.04,VWS V14.01,2013-03-10 15:30:00,
2013-03-10 10:35:00,40.4,37.4,29.69,NNW,338,0.9,2.2,89,0.04,,,0.04,VWS V14.01,2013-03-10 15:35:00,
2013-03-10 10:40:00,40.4,37.4,29.68,NNW,338,2.2,2.2,89,0.01,,,0.04,VWS V14.01,2013-03-10 15:40:00,
2013-03-10 10:45:00,40.3,37.3,29.69,NW,315,0.4,2.2,89,0.00,,,0.04,VWS V14.01,2013-03-10 15:45:00,
2013-03-10 10:50:00,40.3,37.3,29.68,NNW,338,0.4,0.4,89,0.00,,,0.04,VWS V14.01,2013-03-10 15:50:00,
2013-03-10 10:55:00,40.1,37.4,29.68,NE,45,0.2,0.9,90,0.00,,,0.04,VWS V14.01,2013-03-10 15:55:00,
2013-03-10 11:04:00,39.9,37.2,29.67,NE,45,0.0,1.1,90,0.00,,,0.04,VWS V14.01,2013-03-10 16:04:00,
2013-03-10 11:10:00,39.7,37.0,29.67,NNW,338,0.2,1.1,90,0.00,,,0.04,VWS V14.01,2013-03-10 16:10:00,
2013-03-10 11:15:00,39.7,37.0,29.68,ENE,68,0.0,1.8,90,0.00,,,0.04,VWS V14.01,2013-03-10 16:15:00,
2013-03-10 11:20:00,39.7,37.0,29.68,ENE,68,0.4,1.1,90,0.00,,,0.04,VWS V14.01,2013-03-10 16:20:00,
2013-03-10 11:25:00,39.5,36.8,29.70,North,0,0.0,0.7,90,0.00,,,0.04,VWS V14.01,2013-03-10 16:25:00,
2013-03-10 11:30:00,39.4,36.7,29.69,NNE,22,0.2,0.4,90,0.00,,,0.04,VWS V14.01,2013-03-10 16:30:00,
2013-03-10 11:35:00,39.2,36.5,29.69,North,0,0.4,1.6,90,0.00,,,0.04,VWS V14.01,2013-03-10 16:35:00,
2013-03-10 11:40:00,39.0,36.3,29.69,NE,45,0.2,2.0,90,0.00,,,0.04,VWS V14.01,2013-03-10 16:40:00,
2013-03-10 11:45:00,38.8,36.1,29.70,NE,45,1.1,1.1,90,0.00,,,0.04,VWS V14.01,2013-03-10 16:45:00,
2013-03-10 11:50:00,38.6,35.9,29.70,NNW,338,0.2,1.1,90,0.00,,,0.04,VWS V14.01,2013-03-10 16:50:00,
2013-03-10 11:55:00,38.6,35.9,29.69,NNE,22,0.0,1.1,90,0.00,,,0.04,VWS V14.01,2013-03-10 16:55:00,
2013-03-10 12:04:00,38.6,35.9,29.69,NW,315,1.1,1.8,90,0.00,,,0.04,VWS V14.01,2013-03-10 17:04:00,
2013-03-10 12:10:00,38.6,35.9,29.70,NW,315,0.9,0.9,90,0.00,,,0.04,VWS V14.01,2013-03-10 17:10:00,
2013-03-10 12:15:00,38.5,35.8,29.70,NE,45,0.7,0.9,90,0.00,,,0.04,VWS V14.01,2013-03-10 17:15:00,
2013-03-10 12:20:00,38.5,35.8,29.70,NNE,22,0.7,1.3,90,0.00,,,0.04,VWS V14.01,2013-03-10 17:20:00,
2013-03-10 12:25:00,38.3,35.6,29.69,NW,315,2.5,2.5,90,0.00,,,0.04,VWS V14.01,2013-03-10 17:25:00,
2013-03-10 12:30:00,38.1,35.4,29.69,ENE,68,0.9,2.5,90,0.00,,,0.04,VWS V14.01,2013-03-10 17:30:00,
2013-03-10 12:35:00,37.9,35.2,29.69,NNW,338,0.4,3.6,90,0.00,,,0.04,VWS V14.01,2013-03-10 17:35:00,
2013-03-10 12:40:00,37.7,35.0,29.69,NE,45,0.0,0.7,90,0.00,,,0.04,VWS V14.01,2013-03-10 17:40:00,
2013-03-10 12:45:00,37.6,34.9,29.69,NNE,22,0.4,1.3,90,0.00,,,0.04,VWS V14.01,2013-03-10 17:45:00,
2013-03-10 12:50:00,37.6,34.9,29.69,NNW,338,2.5,2.5,90,0.00,,,0.04,VWS V14.01,2013-03-10 17:50:00,
2013-03-10 12:55:00,37.2,34.5,29.69,NNE,22,0.7,2.5,90,0.00,,,0.04,VWS V14.01,2013-03-10 17:55:00,
2013-03-10 13:04:00,37.0,34.3,29.70,NNW,338,2.5,2.5,90,0.00,,,0.04,VWS V14.01,2013-03-10 18:04:00,
2013-03-10 13:10:00,36.8,34.2,29.70,NE,45,0.4,4.0,90,0.00,,,0.04,VWS V14.01,2013-03-10 18:10:00,
2013-03-10 13:15:00,36.8,34.2,29.70,NW,315,1.6,1.8,90,0.00,,,0.04,VWS V14.01,2013-03-10 18:15:00,
2013-03-10 13:20:00,36.7,34.0,29.70,NNW,338,2.9,2.9,90,0.00,,,0.04,VWS V14.01,2013-03-10 18:20:00,
2013-03-10 13:25:00,36.7,34.3,29.70,North,0,3.4,3.4,91,0.00,,,0.04,VWS V14.01,2013-03-10 18:25:00,
2013-03-10 13:30:00,36.5,34.1,29.70,NE,45,0.9,3.4,91,0.00,,,0.04,VWS V14.01,2013-03-10 18:30:00,
2013-03-10 13:35:00,36.5,33.8,29.69,NNW,338,0.9,1.1,90,0.00,,,0.04,VWS V14.01,2013-03-10 18:35:00,
2013-03-10 13:40:00,36.5,34.1,29.69,NNE,22,0.9,0.9,91,0.00,,,0.04,VWS V14.01,2013-03-10 18:40:00,
2013-03-10 13:45:00,36.5,34.1,29.69,NNW,338,0.0,3.4,91,0.00,,,0.04,VWS V14.01,2013-03-10 18:45:00,
2013-03-10 13:50:00,36.5,33.8,29.70,North,0,0.4,0.7,90,0.00,,,0.04,VWS V14.01,2013-03-10 18:50:00,
2013-03-10 13:55:00,36.5,34.1,29.70,NE,45,0.4,3.1,91,0.00,,,0.04,VWS V14.01,2013-03-10 18:55:00,
2013-03-10 14:04:00,36.5,33.8,29.70,NNW,338,0.9,1.6,90,0.00,,,0.04,VWS V14.01,2013-03-10 19:04:00,
2013-03-10 14:10:00,36.3,33.7,29.70,NNW,338,3.1,3.1,90,0.00,,,0.04,VWS V14.01,2013-03-10 19:10:00,
2013-03-10 14:15:00,36.1,33.7,29.70,NNW,338,1.6,3.1,91,0.00,,,0.04,VWS V14.01,2013-03-10 19:15:00,
2013-03-10 14:20:00,36.1,33.5,29.70,NW,315,1.6,3.1,90,0.00,,,0.04,VWS V14.01,2013-03-10 19:20:00,
2013-03-10 14:25:00,36.1,33.7,29.70,ENE,68,0.9,1.6,91,0.00,,,0.04,VWS V14.01,2013-03-10 19:25:00,
2013-03-10 14:30:00,36.1,33.5,29.71,WNW,292,0.4,2.5,90,0.00,,,0.04,VWS V14.01,2013-03-10 19:30:00,
2013-03-10 14:35:00,35.9,33.3,29.71,North,0,4.0,4.0,90,0.00,,,0.04,VWS V14.01,2013-03-10 19:35:00,
2013-03-10 14:40:00,36.1,33.5,29.70,North,0,0.2,4.0,90,0.00,,,0.04,VWS V14.01,2013-03-10 19:40:00,
2013-03-10 14:45:00,35.9,33.3,29.71,NW,315,0.4,2.0,90,0.00,,,0.04,VWS V14.01,2013-03-10 19:45:00,
2013-03-10 14:50:00,35.9,33.3,29.71,North,0,0.9,4.0,90,0.00,,,0.04,VWS V14.01,2013-03-10 19:50:00,
2013-03-10 14:55:00,35.9,33.3,29.71,North,0,0.4,2.5,90,0.00,,,0.04,VWS V14.01,2013-03-10 19:55:00,
2013-03-10 15:04:00,35.8,33.2,29.71,NNW,338,3.4,3.4,90,0.00,,,0.04,VWS V14.01,2013-03-10 20:04:00,
2013-03-10 15:10:00,35.8,33.2,29.71,NW,315,2.5,3.6,90,0.00,,,0.04,VWS V14.01,2013-03-10 20:10:00,
2013-03-10 15:15:00,35.6,33.0,29.72,NNE,22,0.9,3.4,90,0.00,,,0.04,VWS V14.01,2013-03-10 20:15:00,
2013-03-10 15:20:00,35.4,32.8,29.72,NE,45,1.1,1.1,90,0.00,,,0.04,VWS V14.01,2013-03-10 20:20:00,
2013-03-10 15:25:00,35.4,32.8,29.72,ENE,68,0.9,4.7,90,0.00,,,0.04,VWS V14.01,2013-03-10 20:25:00,
2013-03-10 15:30:00,35.2,32.6,29.72,NW,315,1.8,4.7,90,0.00,,,0.04,VWS V14.01,2013-03-10 20:30:00,
2013-03-10 15:35:00,35.0,32.4,29.73,NNE,22,2.5,2.5,90,0.00,,,0.04,VWS V14.01,2013-03-10 20:35:00,
2013-03-10 15:40:00,34.7,31.8,29.73,NNW,338,4.7,4.7,89,0.00,,,0.04,VWS V14.01,2013-03-10 20:40:00,
2013-03-10 15:45:00,34.1,31.2,29.73,NNW,338,2.2,4.7,89,0.00,,,0.04,VWS V14.01,2013-03-10 20:45:00,
2013-03-10 15:50:00,34.0,31.1,29.74,NNW,338,1.1,4.7,89,0.00,,,0.04,VWS V14.01,2013-03-10 20:50:00,
2013-03-10 15:55:00,33.8,30.9,29.74,NNW,338,1.1,4.0,89,0.00,,,0.04,VWS V14.01,2013-03-10 20:55:00,
2013-03-10 16:04:00,33.4,30.5,29.75,NNW,338,4.5,4.5,89,0.00,,,0.04,VWS V14.01,2013-03-10 21:04:00,
2013-03-10 16:10:00,33.2,30.3,29.76,NNE,22,2.5,4.5,89,0.00,,,0.04,VWS V14.01,2013-03-10 21:10:00,
2013-03-10 16:15:00,33.2,30.3,29.76,SW,225,3.1,6.3,89,0.00,,,0.04,VWS V14.01,2013-03-10 21:15:00,
2013-03-10 16:20:00,32.9,30.0,29.76,NNW,338,1.6,4.0,89,0.00,,,0.04,VWS V14.01,2013-03-10 21:20:00,
2013-03-10 16:25:00,32.9,30.0,29.77,NNW,338,3.4,3.8,89,0.00,,,0.04,VWS V14.01,2013-03-10 21:25:00,
2013-03-10 16:30:00,32.7,29.8,29.77,NNW,338,6.3,6.3,89,0.00,,,0.04,VWS V14.01,2013-03-10 21:30:00,
2013-03-10 16:35:00,32.5,29.6,29.77,NE,45,0.4,6.3,89,0.00,,,0.04,VWS V14.01,2013-03-10 21:35:00,
2013-03-10 16:40:00,32.3,29.4,29.77,NE,45,1.6,3.1,89,0.00,,,0.04,VWS V14.01,2013-03-10 21:40:00,
2013-03-10 16:45:00,32.0,29.1,29.77,WNW,292,1.1,4.0,89,0.00,,,0.04,VWS V14.01,2013-03-10 21:45:00,
2013-03-10 16:50:00,31.8,28.9,29.77,NW,315,2.9,2.9,89,0.00,,,0.04,VWS V14.01,2013-03-10 21:50:00,
2013-03-10 16:55:00,31.8,28.9,29.78,NW,315,2.9,3.4,89,0.00,,,0.04,VWS V14.01,2013-03-10 21:55:00,
2013-03-10 17:04:00,31.4,28.5,29.78,NE,45,1.1,2.7,89,0.00,,,0.04,VWS V14.01,2013-03-10 22:04:00,
2013-03-10 17:10:00,31.3,28.4,29.78,NNW,338,1.1,5.4,89,0.00,,,0.04,VWS V14.01,2013-03-10 22:10:00,
2013-03-10 17:15:00,31.1,28.2,29.78,NNW,338,2.2,2.2,89,0.00,,,0.04,VWS V14.01,2013-03-10 22:15:00,
2013-03-10 17:20:00,31.1,28.2,29.78,ENE,68,0.7,4.0,89,0.00,,,0.04,VWS V14.01,2013-03-10 22:20:00,
2013-03-10 17:25:00,31.1,28.2,29.79,NNE,22,1.6,2.9,89,0.00,,,0.04,VWS V14.01,2013-03-10 22:25:00,
2013-03-10 17:30:00,30.9,28.0,29.79,NNE,22,0.4,1.8,89,0.00,,,0.04,VWS V14.01,2013-03-10 22:30:00,
2013-03-10 17:35:00,30.7,27.9,29.79,NW,315,0.4,5.4,89,0.00,,,0.04,VWS V14.01,2013-03-10 22:35:00,
2013-03-10 17:40:00,30.7,27.9,29.80,ENE,68,0.9,2.5,89,0.00,,,0.04,VWS V14.01,2013-03-10 22:40:00,
2013-03-10 17:45:00,30.5,27.6,29.80,NNW,338,2.5,3.6,89,0.00,,,0.04,VWS V14.01,2013-03-10 22:45:00,
2013-03-10 17:50:00,30.4,27.5,29.81,East,90,1.1,2.5,89,0.00,,,0.04,VWS V14.01,2013-03-10 22:50:00,
2013-03-10 17:55:00,30.4,27.5,29.81,East,90,1.1,4.0,89,0.00,,,0.04,VWS V14.01,2013-03-10 22:55:00,
2013-03-10 18:04:00,30.2,27.4,29.80,NNW,338,2.0,2.2,89,0.00,,,0.04,VWS V14.01,2013-03-10 23:04:00,
2013-03-10 18:10:00,30.0,27.2,29.81,North,0,1.6,3.6,89,0.00,,,0.04,VWS V14.01,2013-03-10 23:10:00,
2013-03-10 18:15:00,30.0,27.2,29.81,North,0,1.8,1.8,89,0.00,,,0.04,VWS V14.01,2013-03-10 23:15:00,
2013-03-10 18:20:00,29.8,27.0,29.81,NE,45,0.7,1.8,89,0.00,,,0.04,VWS V14.01,2013-03-10 23:20:00,
2013-03-10 18:25:00,29.8,27.0,29.81,NW,315,2.0,2.9,89,0.00,,,0.04,VWS V14.01,2013-03-10 23:25:00,
2013-03-10 18:30:00,29.8,27.0,29.82,North,0,1.1,3.6,89,0.00,,,0.04,VWS V14.01,2013-03-10 23:30:00,
2013-03-10 18:35:00,29.8,27.0,29.82,ENE,68,2.9,4.9,89,0.00,,,0.04,VWS V14.01,2013-03-10 23:35:00,
2013-03-10 18:40:00,29.6,26.8,29.83,NE,45,2.5,4.5,89,0.00,,,0.04,VWS V14.01,2013-03-10 23:40:00,
2013-03-10 18:45:00,29.6,26.8,29.83,ENE,68,2.0,2.5,89,0.00,,,0.04,VWS V14.01,2013-03-10 23:45:00,
2013-03-10 18:50:00,29.6,26.8,29.83,NNW,338,0.9,2.0,89,0.00,,,0.04,VWS V14.01,2013-03-10 23:50:00,
2013-03-10 18:55:00,29.6,26.8,29.83,NNW,338,0.7,3.4,89,0.00,,,0.04,VWS V14.01,2013-03-10 23:55:00,
2013-03-10 19:04:00,29.5,26.7,29.83,NNW,338,1.6,2.5,89,0.00,,,0.04,VWS V14.01,2013-03-11 00:04:00,
2013-03-10 19:10:00,29.5,26.7,29.84,NNW,338,4.3,4.3,89,0.00,,,0.04,VWS V14.01,2013-03-11 00:10:00,
2013-03-10 19:15:00,29.3,26.5,29.84,NNW,338,0.7,4.3,89,0.00,,,0.04,VWS V14.01,2013-03-11 00:15:00,
2013-03-10 19:20:00,29.3,26.5,29.84,NNW,338,0.7,4.9,89,0.00,,,0.04,VWS V14.01,2013-03-11 00:20:00,
2013-03-10 19:25:00,29.3,26.5,29.84,NNW,338,1.8,5.4,89,0.00,,,0.04,VWS V14.01,2013-03-11 00:25:00,
2013-03-10 19:30:00,29.1,26.0,29.84,NNW,338,1.8,4.3,88,0.00,,,0.04,VWS V14.01,2013-03-11 00:30:00,
2013-03-10 19:35:00,29.1,26.0,29.84,NNW,338,0.4,3.1,88,0.00,,,0.04,VWS V14.01,2013-03-11 00:35:00,
2013-03-10 19:40:00,28.9,25.8,29.84,NNW,338,2.5,4.0,88,0.00,,,0.04,VWS V14.01,2013-03-11 00:40:00,
2013-03-10 19:45:00,28.9,25.8,29.85,NNW,338,0.9,2.9,88,0.00,,,0.04,VWS V14.01,2013-03-11 00:45:00,
2013-03-10 19:50:00,28.9,25.8,29.85,NNW,338,0.7,1.6,88,0.00,,,0.04,VWS V14.01,2013-03-11 00:50:00,
2013-03-10 19:55:00,28.9,25.8,29.86,NNW,338,1.1,3.8,88,0.00,,,0.04,VWS V14.01,2013-03-11 00:55:00,
2013-03-10 20:04:00,28.9,25.8,29.86,NNW,338,2.7,2.7,88,0.00,,,0.04,VWS V14.01,2013-03-11 01:04:00,
2013-03-10 20:10:00,28.9,25.8,29.86,NNW,338,2.2,2.7,88,0.00,,,0.04,VWS V14.01,2013-03-11 01:10:00,
2013-03-10 20:15:00,28.9,25.5,29.86,NNW,338,0.2,2.5,87,0.00,,OVC013,0.04,VWS V14.01,2013-03-11 01:15:00,
2013-03-10 20:20:00,28.9,25.5,29.86,NNW,338,0.4,4.9,87,0.00,,OVC013,0.04,VWS V14.01,2013-03-11 01:20:00,
2013-03-10 20:25:00,28.9,25.5,29.87,NNW,338,3.1,3.1,87,0.00,,OVC013,0.04,VWS V14.01,2013-03-11 01:25:00,
2013-03-10 20:30:00,28.9,25.5,29.87,NNW,338,3.4,3.4,87,0.00,,OVC013,0.04,VWS V14.01,2013-03-11 01:30:00,
2013-03-10 20:35:00,28.9,25.5,29.87,NNW,338,1.6,3.4,87,0.00,,OVC013,0.04,VWS V14.01,2013-03-11 01:35:00,
2013-03-10 20:40:00,28.9,25.5,29.87,NNW,338,1.8,2.7,87,0.00,,OVC013,0.04,VWS V14.01,2013-03-11 01:40:00,
2013-03-10 20:45:00,28.7,25.3,29.87,NNW,338,2.0,2.0,87,0.00,,OVC013,0.04,VWS V14.01,2013-03-11 01:45:00,
2013-03-10 20:50:00,28.9,25.5,29.87,NNW,338,0.4,2.0,87,0.00,,OVC013,0.04,VWS V14.01,2013-03-11 01:50:00,
2013-03-10 20:55:00,28.7,25.3,29.87,NNW,338,2.5,2.9,87,0.00,,OVC013,0.04,VWS V14.01,2013-03-11 01:55:00,
2013-03-10 21:05:00,28.6,25.2,29.87,NNW,338,0.2,1.8,87,0.00,,OVC013,0.04,VWS V14.01,2013-03-11 02:05:00,
2013-03-10 21:10:00,28.6,25.2,29.87,NNW,338,1.6,2.0,87,0.00,,OVC013,0.04,VWS V14.01,2013-03-11 02:10:00,
2013-03-10 21:15:00,28.4,25.0,29.87,NNW,338,1.1,2.7,87,0.00,,,0.04,VWS V14.01,2013-03-11 02:15:00,
2013-03-10 21:20:00,28.4,25.0,29.88,NNW,338,2.2,3.4,87,0.00,,,0.04,VWS V14.01,2013-03-11 02:20:00,
2013-03-10 21:25:00,28.4,25.0,29.88,NNW,338,2.2,2.2,87,0.00,,,0.04,VWS V14.01,2013-03-11 02:25:00,
2013-03-10 21:30:00,28.2,24.8,29.88,NNW,338,1.6,2.5,87,0.00,,,0.04,VWS V14.01,2013-03-11 02:30:00,
2013-03-10 21:35:00,28.2,24.8,29.88,NNW,338,1.1,4.3,87,0.00,,,0.04,VWS V14.01,2013-03-11 02:35:00,
2013-03-10 21:40:00,28.0,24.6,29.88,NNW,338,3.1,3.1,87,0.00,,,0.04,VWS V14.01,2013-03-11 02:40:00,
2013-03-10 21:45:00,28.0,24.6,29.88,NNW,338,0.9,3.1,87,0.00,,,0.04,VWS V14.01,2013-03-11 02:45:00,
2013-03-10 21:50:00,27.8,24.4,29.89,NNW,338,0.7,2.9,87,0.00,,,0.04,VWS V14.01,2013-03-11 02:50:00,
2013-03-10 21:55:00,27.8,24.4,29.89,NNW,338,0.7,3.4,87,0.00,,,0.04,VWS V14.01,2013-03-11 02:55:00,
2013-03-10 22:05:00,27.7,24.1,29.89,NNW,338,1.3,3.6,86,0.00,,,0.04,VWS V14.01,2013-03-11 03:05:00,
2013-03-10 22:10:00,27.7,24.1,29.90,NNW,338,2.5,2.5,86,0.00,,,0.04,VWS V14.01,2013-03-11 03:10:00,
2013-03-10 22:15:00,27.7,24.1,29.90,NNW,338,3.6,3.6,86,0.00,,OVC011,0.04,VWS V14.01,2013-03-11 03:15:00,
2013-03-10 22:20:00,27.7,24.1,29.90,NNW,338,1.6,4.0,86,0.00,,OVC011,0.04,VWS V14.01,2013-03-11 03:20:00,
2013-03-10 22:25:00,27.5,23.9,29.90,NNW,338,2.5,2.9,86,0.00,,OVC011,0.04,VWS V14.01,2013-03-11 03:25:00,
2013-03-10 22:30:00,27.5,23.9,29.90,NNW,338,1.1,2.5,86,0.00,,OVC011,0.04,VWS V14.01,2013-03-11 03:30:00,
2013-03-10 22:35:00,27.3,23.7,29.90,NNW,338,0.9,2.9,86,0.00,,OVC011,0.04,VWS V14.01,2013-03-11 03:35:00,
2013-03-10 22:40:00,27.3,23.7,29.90,NNW,338,4.0,4.0,86,0.00,,OVC011,0.04,VWS V14.01,2013-03-11 03:40:00,
2013-03-10 22:45:00,27.3,23.7,29.90,NNW,338,1.1,4.0,86,0.00,,OVC011,0.04,VWS V14.01,2013-03-11 03:45:00,
2013-03-10 22:50:00,27.1,23.5,29.91,NNW,338,0.4,2.5,86,0.00,,OVC011,0.04,VWS V14.01,2013-03-11 03:50:00,
2013-03-10 22:55:00,26.9,23.3,29.91,NNW,338,3.8,5.4,86,0.00,,OVC011,0.04,VWS V14.01,2013-03-11 03:55:00,
2013-03-10 23:00:00,26.9,23.3,29.90,NNW,338,2.5,3.8,86,0.00,,OVC011,0.04,VWS V14.01,2013-03-11 04:00:00,
2013-03-10 23:05:00,26.8,23.2,29.90,NNW,338,0.4,0.4,86,0.00,,OVC011,0.04,VWS V14.01,2013-03-11 04:05:00,
2013-03-10 23:15:00,26.6,23.0,29.90,NNW,338,3.1,4.7,86,0.00,,OVC011,0.04,VWS V14.01,2013-03-11 04:15:00,
2013-03-10 23:20:00,26.6,23.0,29.90,NNW,338,2.2,3.1,86,0.00,,OVC011,0.04,VWS V14.01,2013-03-11 04:20:00,
2013-03-10 23:25:00,26.6,23.0,29.90,NNW,338,1.3,2.2,86,0.00,,OVC011,0.04,VWS V14.01,2013-03-11 04:25:00,
2013-03-10 23:30:00,26.4,22.8,29.91,NNW,338,5.4,5.4,86,0.00,,OVC011,0.04,VWS V14.01,2013-03-11 04:30:00,
2013-03-10 23:35:00,26.4,22.8,29.91,NNW,338,5.4,5.4,86,0.00,,OVC011,0.04,VWS V14.01,2013-03-11 04:35:00,
2013-03-10 23:40:00,26.4,22.8,29.91,NNW,338,1.8,5.4,86,0.00,,OVC011,0.04,VWS V14.01,2013-03-11 04:40:00,
2013-03-10 23:45:00,26.2,22.6,29.91,NNW,338,2.5,2.5,86,0.00,,OVC011,0.04,VWS V14.01,2013-03-11 04:45:00,
2013-03-10 23:55:00,26.2,22.6,29.91,NNW,338,0.9,1.6,86,0.00,,OVC011,0.04,VWS V14.01,2013-03-11 04:55:00,